Terminal Aerodrome Forecast
Issued by NWS St Louis, MO

Home | Current Version | Previous Version | Text Only | Print | Product List | Glossary On
Versions: 1 2 3 4 5 6 7 8 9 10 11 12 13 14 15 16 17 18 19 20
000
FTUS43 KLSX 242300
TAFCOU
TAF
KCOU 242320Z 2500/2524 17012G18KT P6SM VCSH BKN035 OVC100
     FM250100 15014KT 6SM -SHRA OVC035
     FM250600 22012KT P6SM SCT009 BKN020
     FM251300 19009KT P6SM SCT030=

USA.gov is the U.S. government's official web portal to all federal, state and local government web resources and services.